Time;durP1;ratioP1;P1;durP2;ratioP2;P2;SDS_P1;SDS_P2;PMS_P1;PMS_P2;Temp;Humidity;BMP_temperature;BMP_pressure;BME280_temperature;BME280_humidity;BME280_pressure;Samples;Min_cycle;Max_cycle;Signal;HPM_P1;HPM_P2
2023/08/30 00:00:19;;;;;;;18.48;14.77;;;26.40;72.70;;;;;;5032408;28;20033;-53
2023/08/30 00:02:46;;;;;;;16.75;14.15;;;26.40;72.60;;;;;;5031135;28;20029;-52
2023/08/30 00:05:13;;;;;;;16.50;14.65;;;26.40;72.70;;;;;;5032258;28;20448;-54
2023/08/30 00:07:39;;;;;;;21.52;14.82;;;26.40;72.80;;;;;;5031372;28;20029;-54
2023/08/30 00:10:07;;;;;;;16.42;14.35;;;26.30;72.70;;;;;;5031857;28;20037;-54
2023/08/30 00:12:33;;;;;;;18.58;13.80;;;26.30;72.70;;;;;;5032182;28;20104;-55
2023/08/30 00:14:59;;;;;;;16.13;13.65;;;26.30;72.70;;;;;;5032106;28;20030;-52
2023/08/30 00:17:25;;;;;;;15.93;14.23;;;26.30;72.70;;;;;;5031762;28;20037;-53
2023/08/30 00:19:52;;;;;;;17.15;14.35;;;26.30;72.70;;;;;;5031325;28;20030;-52
2023/08/30 00:22:18;;;;;;;16.00;14.18;;;26.30;72.70;;;;;;5031630;28;20049;-55
2023/08/30 00:24:45;;;;;;;15.38;13.77;;;26.30;72.70;;;;;;5031500;28;20017;-54
2023/08/30 00:27:10;;;;;;;16.15;14.55;;;26.30;72.90;;;;;;5031203;28;20057;-53
2023/08/30 00:29:36;;;;;;;15.95;14.45;;;26.30;73.20;;;;;;5031904;28;20025;-55
2023/08/30 00:32:02;;;;;;;15.95;14.35;;;26.20;73.30;;;;;;5031567;28;20089;-53
2023/08/30 00:34:27;;;;;;;16.25;14.75;;;26.20;74.20;;;;;;5031805;28;20026;-54
2023/08/30 00:36:53;;;;;;;16.77;14.52;;;26.20;73.60;;;;;;5031988;28;20033;-51
2023/08/30 00:39:19;;;;;;;16.58;14.88;;;26.20;73.60;;;;;;5033439;28;20064;-53
2023/08/30 00:41:44;;;;;;;16.63;14.93;;;26.10;73.60;;;;;;5032948;28;20068;-54
2023/08/30 00:44:10;;;;;;;16.88;15.27;;;26.10;73.80;;;;;;5032459;28;20037;-53
2023/08/30 00:46:37;;;;;;;17.27;14.27;;;26.10;73.80;;;;;;5033382;28;20026;-55
2023/08/30 00:49:04;;;;;;;15.27;13.68;;;26.00;73.70;;;;;;5031524;28;20034;-54
2023/08/30 00:51:30;;;;;;;15.98;14.38;;;26.00;73.90;;;;;;5033346;28;20052;-53
2023/08/30 00:53:58;;;;;;;16.05;14.35;;;26.00;73.90;;;;;;5032658;28;20036;-52
2023/08/30 00:56:23;;;;;;;16.92;15.05;;;26.00;73.90;;;;;;5032415;28;20064;-53
2023/08/30 00:58:50;;;;;;;16.42;14.90;;;25.90;73.90;;;;;;5031805;28;20042;-53
2023/08/30 01:01:18;;;;;;;16.45;14.85;;;26.00;74.00;;;;;;5032293;28;20029;-54
2023/08/30 01:03:43;;;;;;;16.90;15.20;;;26.00;74.10;;;;;;5033004;28;20086;-53
2023/08/30 01:06:09;;;;;;;16.35;14.55;;;25.90;74.00;;;;;;5032994;28;20034;-54
2023/08/30 01:08:38;;;;;;;15.50;13.90;;;25.90;74.10;;;;;;5032603;28;20062;-53
2023/08/30 01:11:29;;;;;;;17.05;15.00;;;25.90;74.10;;;;;;5033486;28;20034;-54
2023/08/30 01:14:11;;;;;;;16.65;15.00;;;25.90;74.20;;;;;;5033763;28;20089;-54
2023/08/30 01:16:38;;;;;;;17.35;15.65;;;25.90;74.20;;;;;;5033799;28;20006;-55
2023/08/30 01:19:38;;;;;;;17.63;15.68;;;25.80;74.30;;;;;;5033165;28;20034;-53
2023/08/30 01:22:16;;;;;;;16.65;14.90;;;25.80;74.20;;;;;;5028140;28;20038;-52
2023/08/30 01:25:04;;;;;;;16.95;15.13;;;25.80;74.50;;;;;;5033376;28;20061;-55
2023/08/30 01:27:34;;;;;;;17.05;15.23;;;25.70;74.40;;;;;;5033525;28;20053;-53
2023/08/30 01:30:02;;;;;;;16.27;14.57;;;25.70;74.60;;;;;;5033224;28;20029;-53
2023/08/30 01:32:30;;;;;;;16.73;14.93;;;25.70;74.70;;;;;;5033453;28;20038;-53
2023/08/30 01:34:57;;;;;;;18.50;15.15;;;25.60;74.70;;;;;;5033564;28;20034;-53
2023/08/30 01:37:25;;;;;;;17.13;15.32;;;25.60;74.80;;;;;;5032921;28;20060;-54
2023/08/30 01:39:52;;;;;;;18.23;14.98;;;25.70;74.90;;;;;;5033186;28;20030;-54
2023/08/30 01:42:21;;;;;;;17.13;15.32;;;25.60;74.90;;;;;;5033300;28;20026;-52
2023/08/30 01:44:49;;;;;;;17.33;15.53;;;25.60;74.80;;;;;;5033037;28;20018;-55
2023/08/30 01:47:16;;;;;;;18.05;14.90;;;25.60;74.90;;;;;;5033707;28;20033;-52
2023/08/30 01:49:43;;;;;;;16.42;14.82;;;25.60;75.00;;;;;;5032929;28;20037;-54
2023/08/30 01:52:11;;;;;;;16.73;14.93;;;25.60;75.10;;;;;;5034065;28;20037;-54
2023/08/30 01:54:38;;;;;;;16.65;14.98;;;25.60;75.20;;;;;;5033840;28;20056;-52
2023/08/30 01:57:05;;;;;;;17.05;15.32;;;25.50;75.20;;;;;;5032211;28;20022;-53
2023/08/30 01:59:31;;;;;;;17.73;15.90;;;25.50;75.30;;;;;;5033741;28;20038;-53
2023/08/30 02:01:57;;;;;;;17.10;15.40;;;25.50;75.20;;;;;;5033240;28;20033;-53
2023/08/30 02:04:22;;;;;;;16.60;14.85;;;25.50;75.20;;;;;;5033350;28;20049;-54
2023/08/30 02:06:59;;;;;;;18.05;16.17;;;25.50;75.20;;;;;;5033219;28;20014;-53
2023/08/30 02:09:30;;;;;;;17.55;15.70;;;25.40;75.10;;;;;;5034109;28;20010;-55
2023/08/30 02:12:00;;;;;;;19.33;15.80;;;25.40;75.20;;;;;;5036897;28;20052;-54
2023/08/30 02:14:27;;;;;;;17.13;15.43;;;25.40;75.20;;;;;;5037723;28;20018;-54
2023/08/30 02:16:55;;;;;;;18.98;15.68;;;25.40;75.40;;;;;;5037479;28;20041;-54
2023/08/30 02:19:21;;;;;;;17.67;15.90;;;25.40;75.70;;;;;;5036535;28;20041;-54
2023/08/30 02:21:48;;;;;;;20.30;15.40;;;25.40;76.10;;;;;;5036490;28;20057;-55
2023/08/30 02:24:13;;;;;;;18.05;15.63;;;25.40;76.10;;;;;;5036939;28;20008;-53
2023/08/30 02:26:39;;;;;;;16.48;14.88;;;25.30;76.20;;;;;;5036864;28;20025;-53
2023/08/30 02:29:05;;;;;;;16.35;14.80;;;25.30;76.30;;;;;;5036553;28;20093;-54
2023/08/30 02:31:31;;;;;;;17.40;15.65;;;25.30;76.60;;;;;;5036639;28;20030;-54
2023/08/30 02:33:57;;;;;;;16.52;14.82;;;25.30;76.70;;;;;;5036369;28;20061;-52
2023/08/30 02:36:22;;;;;;;17.13;15.18;;;25.20;76.80;;;;;;5037393;28;20089;-51
2023/08/30 02:38:48;;;;;;;17.77;15.40;;;25.20;76.90;;;;;;5037185;28;20034;-52
2023/08/30 02:41:13;;;;;;;18.38;16.48;;;25.20;76.80;;;;;;5037677;28;20033;-54
2023/08/30 02:43:39;;;;;;;17.25;14.95;;;25.20;76.80;;;;;;5037393;28;20037;-52
2023/08/30 02:46:05;;;;;;;19.00;16.73;;;25.20;76.70;;;;;;5037547;28;20040;-53
2023/08/30 02:48:32;;;;;;;18.48;16.52;;;25.20;76.80;;;;;;5037710;28;20093;-54
2023/08/30 02:50:57;;;;;;;19.10;16.52;;;25.20;77.00;;;;;;5035732;28;20037;-54
2023/08/30 02:53:23;;;;;;;17.75;15.90;;;25.10;76.90;;;;;;5037550;28;20082;-53
2023/08/30 02:55:49;;;;;;;18.48;16.65;;;25.10;77.10;;;;;;5037931;28;20026;-53
2023/08/30 02:58:15;;;;;;;18.73;16.75;;;25.10;77.30;;;;;;5037345;28;20089;-53
2023/08/30 03:00:41;;;;;;;20.63;18.20;;;25.10;77.70;;;;;;5037046;28;20040;-53
2023/08/30 03:03:06;;;;;;;20.48;18.15;;;25.10;77.20;;;;;;5036733;28;20082;-53
2023/08/30 03:05:32;;;;;;;20.50;17.75;;;25.00;77.30;;;;;;5037204;28;20006;-53
2023/08/30 03:07:58;;;;;;;21.38;19.15;;;25.00;77.20;;;;;;5036973;28;20041;-53
2023/08/30 03:10:24;;;;;;;24.85;22.10;;;25.00;77.20;;;;;;5037076;28;20034;-54
2023/08/30 03:12:49;;;;;;;24.60;21.20;;;25.00;77.00;;;;;;5037040;28;20048;-55
2023/08/30 03:15:15;;;;;;;23.25;20.75;;;25.00;76.90;;;;;;5037010;28;20009;-53
2023/08/30 03:17:40;;;;;;;24.52;20.17;;;25.00;76.70;;;;;;5037542;28;20014;-54
2023/08/30 03:20:07;;;;;;;22.60;20.20;;;25.00;76.80;;;;;;5037541;28;20034;-53
2023/08/30 03:22:32;;;;;;;22.35;20.13;;;25.00;76.80;;;;;;5036349;28;20033;-54
2023/08/30 03:24:58;;;;;;;23.05;20.05;;;25.00;77.00;;;;;;5037173;28;20026;-54
2023/08/30 03:27:24;;;;;;;21.35;19.05;;;25.00;77.20;;;;;;5037096;28;20033;-54
2023/08/30 03:29:50;;;;;;;22.13;19.83;;;25.00;77.40;;;;;;5037297;28;20032;-53
2023/08/30 03:32:17;;;;;;;22.27;20.00;;;25.00;77.50;;;;;;5036449;28;20520;-53
2023/08/30 03:34:46;;;;;;;23.85;21.30;;;25.00;77.40;;;;;;5036741;28;20022;-54
2023/08/30 03:37:16;;;;;;;25.15;21.00;;;25.00;77.30;;;;;;5036277;28;20041;-54
2023/08/30 03:39:42;;;;;;;26.13;22.27;;;25.00;77.20;;;;;;5035662;28;20014;-53
2023/08/30 03:42:07;;;;;;;23.95;21.40;;;25.00;77.00;;;;;;5035947;28;20033;-54
2023/08/30 03:44:33;;;;;;;23.60;20.20;;;25.10;76.80;;;;;;5036053;28;20108;-52
2023/08/30 03:46:59;;;;;;;21.45;18.73;;;25.10;76.70;;;;;;5035270;28;20026;-51
2023/08/30 03:49:25;;;;;;;24.90;20.02;;;25.10;76.70;;;;;;5035009;28;20030;-51
2023/08/30 03:51:50;;;;;;;22.63;19.80;;;25.10;76.70;;;;;;5035169;28;20074;-51
2023/08/30 03:54:16;;;;;;;22.23;19.83;;;25.10;76.70;;;;;;5035606;28;20018;-51
2023/08/30 03:56:45;;;;;;;22.63;19.42;;;25.10;76.70;;;;;;5035067;28;20033;-51
2023/08/30 03:59:11;;;;;;;20.38;18.17;;;25.20;76.90;;;;;;5035175;28;20086;-53
2023/08/30 04:01:38;;;;;;;22.80;18.50;;;25.20;77.10;;;;;;5036015;28;20089;-54
2023/08/30 04:04:04;;;;;;;23.73;19.10;;;25.20;77.20;;;;;;5036450;28;20069;-52
2023/08/30 04:06:30;;;;;;;24.00;20.75;;;25.30;77.20;;;;;;5036207;28;20025;-53
2023/08/30 04:08:56;;;;;;;27.75;22.38;;;25.30;77.30;;;;;;5036278;28;20122;-54
2023/08/30 04:11:21;;;;;;;28.58;22.05;;;25.40;77.00;;;;;;5036395;28;20034;-51
2023/08/30 04:13:47;;;;;;;25.83;21.48;;;25.40;76.70;;;;;;5036441;28;20018;-52
2023/08/30 04:16:13;;;;;;;25.35;21.85;;;25.40;76.80;;;;;;5036490;28;20013;-53
2023/08/30 04:18:38;;;;;;;24.67;21.08;;;25.50;77.20;;;;;;5036322;28;20029;-54
2023/08/30 04:21:06;;;;;;;25.48;19.25;;;25.50;76.60;;;;;;5035938;28;20033;-54
2023/08/30 04:23:31;;;;;;;27.20;21.65;;;25.50;76.20;;;;;;5036459;28;20018;-53
2023/08/30 04:25:57;;;;;;;26.02;20.70;;;25.60;76.00;;;;;;5035851;28;20069;-55
2023/08/30 04:28:23;;;;;;;24.88;20.95;;;25.60;75.90;;;;;;5035431;28;20133;-53
2023/08/30 04:30:48;;;;;;;32.80;23.45;;;25.60;75.70;;;;;;5036105;28;20094;-53
2023/08/30 04:33:14;;;;;;;27.80;20.13;;;25.70;75.70;;;;;;5036198;28;20040;-53
2023/08/30 04:35:40;;;;;;;23.60;20.30;;;25.70;75.50;;;;;;5035796;28;20093;-52
2023/08/30 04:38:05;;;;;;;23.92;19.98;;;25.70;75.40;;;;;;5036140;28;20030;-51
2023/08/30 04:40:32;;;;;;;19.90;17.15;;;25.90;75.50;;;;;;5035870;28;20033;-54
2023/08/30 04:42:58;;;;;;;24.38;17.20;;;26.00;75.10;;;;;;5035666;28;20029;-53
2023/08/30 04:45:24;;;;;;;19.08;16.40;;;26.00;74.80;;;;;;5035706;28;20025;-54
2023/08/30 04:47:49;;;;;;;17.63;15.80;;;26.10;74.40;;;;;;5035467;28;20030;-52
2023/08/30 04:50:16;;;;;;;17.70;15.48;;;26.10;74.20;;;;;;5034140;28;20038;-54
2023/08/30 04:52:42;;;;;;;18.48;15.00;;;26.10;74.10;;;;;;5035725;28;20030;-53
2023/08/30 04:55:08;;;;;;;16.50;14.90;;;26.20;74.10;;;;;;5035279;28;20077;-53
2023/08/30 04:57:34;;;;;;;16.45;14.77;;;26.20;74.20;;;;;;5035401;28;20114;-54
2023/08/30 05:00:04;;;;;;;19.50;15.93;;;26.20;74.10;;;;;;5035325;28;20029;-55
2023/08/30 05:02:30;;;;;;;16.80;14.97;;;26.30;74.10;;;;;;5035675;28;20040;-54
2023/08/30 05:04:55;;;;;;;17.38;15.05;;;26.40;73.90;;;;;;5035096;28;20263;-54
2023/08/30 05:07:21;;;;;;;17.05;15.30;;;26.40;73.60;;;;;;5035455;28;20013;-54
2023/08/30 05:09:46;;;;;;;20.35;15.80;;;26.50;73.40;;;;;;5035579;28;20106;-53
2023/08/30 05:12:12;;;;;;;16.08;14.38;;;26.60;74.00;;;;;;5035556;28;20029;-53
2023/08/30 05:14:38;;;;;;;17.85;14.85;;;26.80;73.20;;;;;;5034774;28;20018;-55
2023/08/30 05:17:04;;;;;;;16.30;14.40;;;26.90;73.40;;;;;;5034678;28;20066;-54
2023/08/30 05:19:30;;;;;;;15.60;13.00;;;27.10;72.80;;;;;;5034496;28;20671;-55
2023/08/30 05:21:55;;;;;;;14.32;12.90;;;27.30;72.30;;;;;;5034127;28;20013;-54
2023/08/30 05:24:21;;;;;;;17.30;12.63;;;27.50;72.10;;;;;;5033266;28;20034;-54
2023/08/30 05:26:48;;;;;;;15.52;13.02;;;27.60;71.70;;;;;;5033232;28;20094;-54
2023/08/30 05:29:15;;;;;;;15.80;14.15;;;27.70;71.60;;;;;;5033141;28;20026;-54
2023/08/30 05:31:41;;;;;;;17.90;12.88;;;27.70;71.30;;;;;;5032643;28;20037;-53
2023/08/30 05:34:06;;;;;;;13.52;12.13;;;27.70;71.10;;;;;;5032501;28;20030;-53
2023/08/30 05:36:32;;;;;;;16.65;13.10;;;27.70;71.90;;;;;;5032384;28;20089;-53
2023/08/30 05:38:58;;;;;;;15.55;13.23;;;27.70;71.10;;;;;;5032679;28;20090;-54
2023/08/30 05:41:23;;;;;;;14.38;11.68;;;27.80;71.00;;;;;;5032381;28;20030;-53
2023/08/30 05:43:51;;;;;;;13.80;11.75;;;27.90;70.70;;;;;;5031077;28;20085;-52
2023/08/30 05:46:16;;;;;;;14.57;11.93;;;28.10;70.20;;;;;;5034068;28;20033;-52
2023/08/30 05:48:42;;;;;;;13.70;11.73;;;28.10;70.00;;;;;;5035752;28;20077;-54
2023/08/30 05:51:08;;;;;;;13.18;11.75;;;28.10;69.90;;;;;;5034692;28;20037;-53
2023/08/30 05:53:33;;;;;;;12.77;11.32;;;28.10;69.80;;;;;;5034777;28;20061;-54
2023/08/30 05:55:59;;;;;;;11.98;10.77;;;28.10;69.80;;;;;;5035589;28;20080;-55
2023/08/30 05:58:24;;;;;;;11.50;10.32;;;28.10;69.80;;;;;;5034551;28;20438;-53
2023/08/30 06:00:50;;;;;;;13.65;10.80;;;28.10;69.80;;;;;;5034637;28;20099;-52
2023/08/30 06:03:16;;;;;;;14.35;11.23;;;28.10;69.90;;;;;;5035373;28;20022;-53
2023/08/30 06:05:42;;;;;;;14.02;10.82;;;28.00;69.80;;;;;;5035062;28;20026;-54
2023/08/30 06:08:08;;;;;;;13.68;10.43;;;28.00;69.80;;;;;;5034678;28;20045;-55
2023/08/30 06:10:36;;;;;;;13.90;10.50;;;28.10;70.00;;;;;;5034448;28;20010;-54
2023/08/30 06:13:02;;;;;;;14.30;9.98;;;28.00;69.60;;;;;;5034426;28;20033;-54
2023/08/30 06:15:28;;;;;;;11.90;10.23;;;28.00;69.30;;;;;;5034873;28;20600;-55
2023/08/30 06:17:54;;;;;;;11.18;10.02;;;28.00;69.20;;;;;;5034606;28;20033;-51
2023/08/30 06:20:19;;;;;;;13.45;11.10;;;28.00;69.30;;;;;;5034375;28;20048;-55
2023/08/30 06:22:45;;;;;;;14.57;10.30;;;28.00;69.20;;;;;;5033951;28;20451;-54
2023/08/30 06:25:10;;;;;;;21.98;15.45;;;28.10;69.10;;;;;;5033433;28;20084;-55
2023/08/30 06:27:43;;;;;;;19.45;12.40;;;28.10;68.60;;;;;;5033915;28;20049;-54
2023/08/30 06:30:10;;;;;;;15.25;11.48;;;28.10;68.30;;;;;;5033558;28;20026;-55
2023/08/30 06:32:35;;;;;;;23.88;15.25;;;28.10;68.40;;;;;;5032959;28;20049;-54
2023/08/30 06:35:01;;;;;;;20.52;15.82;;;28.10;67.80;;;;;;5033414;28;20034;-54
2023/08/30 06:37:27;;;;;;;28.63;18.13;;;28.20;67.10;;;;;;5032042;28;20125;-54
2023/08/30 06:39:52;;;;;;;29.98;17.08;;;28.20;66.90;;;;;;5033650;28;20033;-55
2023/08/30 06:42:18;;;;;;;25.95;15.52;;;28.20;66.70;;;;;;5033616;28;20026;-53
2023/08/30 06:44:43;;;;;;;29.02;17.73;;;28.30;66.80;;;;;;5033032;28;20056;-55
2023/08/30 06:47:09;;;;;;;29.00;16.20;;;28.30;66.40;;;;;;5033378;28;20517;-54
2023/08/30 06:49:35;;;;;;;31.00;18.20;;;28.40;65.80;;;;;;5030101;28;20049;-54
2023/08/30 06:52:04;;;;;;;33.72;18.02;;;28.40;65.30;;;;;;5028795;28;20034;-54
2023/08/30 06:54:34;;;;;;;28.13;15.17;;;28.40;64.90;;;;;;5029235;28;20052;-55
2023/08/30 06:57:00;;;;;;;23.83;14.02;;;28.40;64.60;;;;;;5022508;28;20059;-54
2023/08/30 06:59:27;;;;;;;31.13;19.27;;;28.50;64.70;;;;;;5026799;28;20097;-54
2023/08/30 07:01:53;;;;;;;32.20;19.17;;;28.50;64.00;;;;;;5028174;28;20032;-52
2023/08/30 07:04:18;;;;;;;31.45;18.67;;;28.60;63.50;;;;;;5028745;28;20042;-54
2023/08/30 07:06:44;;;;;;;27.88;15.93;;;28.60;63.30;;;;;;5030317;28;20089;-55
2023/08/30 07:09:11;;;;;;;27.48;14.50;;;28.60;63.00;;;;;;5029718;28;20034;-55
2023/08/30 07:11:37;;;;;;;35.90;18.02;;;28.70;63.30;;;;;;5030274;28;20025;-54
2023/08/30 07:14:04;;;;;;;33.70;17.77;;;28.70;63.00;;;;;;5029495;28;20044;-54
2023/08/30 07:16:31;;;;;;;29.42;17.70;;;28.70;62.90;;;;;;5030928;28;20038;-55
2023/08/30 07:18:57;;;;;;;22.65;11.90;;;28.80;62.70;;;;;;5031117;28;20141;-53
2023/08/30 07:21:23;;;;;;;22.52;13.63;;;28.80;62.30;;;;;;5031206;28;20022;-53
2023/08/30 07:23:49;;;;;;;31.73;17.45;;;28.80;62.30;;;;;;5030453;28;20029;-52
2023/08/30 07:26:14;;;;;;;28.92;15.90;;;28.90;62.00;;;;;;5029673;28;20038;-53
2023/08/30 07:28:40;;;;;;;25.30;13.88;;;28.90;61.60;;;;;;5032157;28;20045;-54
2023/08/30 07:31:06;;;;;;;23.60;13.77;;;28.90;61.70;;;;;;5029254;28;20038;-54
2023/08/30 07:33:32;;;;;;;19.65;14.02;;;29.00;61.50;;;;;;5030269;28;20026;-53
2023/08/30 07:35:58;;;;;;;27.05;15.13;;;29.00;61.40;;;;;;5025568;28;20045;-53
2023/08/30 07:38:24;;;;;;;30.60;16.27;;;29.00;61.30;;;;;;5031657;28;20057;-53
2023/08/30 07:40:50;;;;;;;18.35;12.25;;;29.00;61.10;;;;;;5033310;28;20025;-54
2023/08/30 07:43:15;;;;;;;17.50;10.77;;;29.10;61.20;;;;;;5022580;28;20010;-54
2023/08/30 07:45:41;;;;;;;9.02;7.40;;;29.00;61.30;;;;;;5026986;28;20085;-52
2023/08/30 07:48:07;;;;;;;23.23;11.88;;;29.10;61.50;;;;;;5029741;28;20025;-53
2023/08/30 07:50:32;;;;;;;20.25;11.60;;;29.10;61.40;;;;;;5032014;28;20040;-54
2023/08/30 07:52:58;;;;;;;17.33;10.70;;;29.10;61.20;;;;;;5025062;28;20101;-54
2023/08/30 07:55:24;;;;;;;22.75;12.27;;;29.10;61.20;;;;;;5030068;28;20056;-55
2023/08/30 07:57:49;;;;;;;21.10;13.07;;;29.10;61.00;;;;;;5027935;28;20034;-55
2023/08/30 08:00:15;;;;;;;14.88;9.70;;;29.10;61.00;;;;;;5030678;28;20033;-53
2023/08/30 08:02:41;;;;;;;14.25;8.35;;;29.20;61.20;;;;;;5030850;28;20052;-54
2023/08/30 08:05:06;;;;;;;13.38;8.00;;;29.20;61.10;;;;;;5030072;28;20313;-55
2023/08/30 08:07:32;;;;;;;10.35;7.15;;;29.20;60.90;;;;;;5029245;28;20041;-55
2023/08/30 08:09:58;;;;;;;17.23;9.10;;;29.20;60.50;;;;;;5027371;28;20026;-55
2023/08/30 08:12:24;;;;;;;11.38;7.97;;;29.30;60.20;;;;;;5021597;28;20791;-54
2023/08/30 08:14:49;;;;;;;10.27;6.40;;;29.30;60.10;;;;;;5021095;28;20029;-54
2023/08/30 08:17:15;;;;;;;11.05;6.85;;;29.30;60.50;;;;;;5025114;28;20026;-54
2023/08/30 08:19:42;;;;;;;10.73;7.05;;;29.30;60.00;;;;;;5022776;28;20031;-55
2023/08/30 08:22:08;;;;;;;11.32;6.68;;;29.30;60.00;;;;;;5025352;28;20021;-54
2023/08/30 08:24:34;;;;;;;8.73;6.07;;;29.40;60.00;;;;;;5024671;28;20041;-54
2023/08/30 08:27:01;;;;;;;8.77;6.20;;;29.40;59.70;;;;;;5023669;28;20058;-51
2023/08/30 08:29:27;;;;;;;10.07;5.97;;;29.40;59.60;;;;;;5024136;28;20033;-55
2023/08/30 08:31:53;;;;;;;9.32;5.82;;;29.40;59.70;;;;;;5027054;28;20022;-54
2023/08/30 08:34:19;;;;;;;10.25;6.35;;;29.40;60.00;;;;;;5028229;28;20045;-54
2023/08/30 08:36:45;;;;;;;8.70;6.72;;;29.40;59.90;;;;;;5026188;28;20093;-54
2023/08/30 08:39:10;;;;;;;11.60;6.85;;;29.50;59.90;;;;;;5028412;28;20080;-53
2023/08/30 08:41:41;;;;;;;8.02;5.95;;;29.50;60.40;;;;;;5029829;28;20025;-54
2023/08/30 08:44:08;;;;;;;15.43;6.63;;;29.50;60.80;;;;;;5022218;28;20041;-55
2023/08/30 08:46:38;;;;;;;6.57;5.72;;;29.40;60.00;;;;;;5030062;28;20026;-52
2023/08/30 08:49:16;;;;;;;9.60;5.88;;;29.40;60.10;;;;;;5020031;28;20030;-54
2023/08/30 08:51:43;;;;;;;7.05;6.15;;;29.40;60.50;;;;;;5023596;28;20034;-54
2023/08/30 08:54:10;;;;;;;7.13;5.50;;;29.40;61.10;;;;;;5029091;28;20041;-54
2023/08/30 08:56:37;;;;;;;10.20;6.05;;;29.40;62.20;;;;;;5026927;28;20093;-55
2023/08/30 08:59:04;;;;;;;7.90;5.43;;;29.40;62.70;;;;;;5026345;28;20034;-52
2023/08/30 09:01:31;;;;;;;6.78;5.30;;;29.40;62.70;;;;;;5028006;28;20037;-55
2023/08/30 09:03:57;;;;;;;8.02;5.97;;;29.30;62.50;;;;;;5023176;28;20029;-54
2023/08/30 09:06:23;;;;;;;6.85;6.15;;;29.30;63.50;;;;;;5024914;28;20022;-53
2023/08/30 09:08:49;;;;;;;6.05;5.43;;;29.30;64.40;;;;;;5020462;28;20030;-53
2023/08/30 09:11:14;;;;;;;7.90;5.95;;;29.20;64.90;;;;;;5019935;28;20018;-53
2023/08/30 09:13:43;;;;;;;8.00;5.97;;;29.20;64.60;;;;;;5026548;28;20402;-53
2023/08/30 09:16:15;;;;;;;8.75;5.93;;;29.20;64.90;;;;;;5024616;28;20038;-52
2023/08/30 09:18:44;;;;;;;7.00;5.38;;;29.10;64.90;;;;;;5024612;28;20053;-52
2023/08/30 09:21:11;;;;;;;6.45;5.63;;;29.00;65.20;;;;;;5024436;28;20053;-54
2023/08/30 09:23:37;;;;;;;7.03;5.50;;;29.00;65.50;;;;;;5018439;28;20427;-53
2023/08/30 09:26:04;;;;;;;8.68;6.25;;;28.90;65.70;;;;;;5023376;28;20037;-53
2023/08/30 09:28:31;;;;;;;6.25;5.65;;;28.90;65.90;;;;;;5026881;28;20046;-53
2023/08/30 09:31:01;;;;;;;8.63;5.22;;;28.80;66.50;;;;;;5027438;28;20026;-54
2023/08/30 09:33:32;;;;;;;6.70;5.25;;;28.80;67.00;;;;;;5025368;28;20069;-53
2023/08/30 09:35:58;;;;;;;11.73;5.28;;;28.80;67.70;;;;;;5022891;28;20041;-53
2023/08/30 09:38:25;;;;;;;8.65;5.47;;;28.70;67.30;;;;;;5025868;28;20030;-54
2023/08/30 09:40:51;;;;;;;9.95;5.70;;;28.70;67.60;;;;;;5029640;28;21858;-54
2023/08/30 09:43:21;;;;;;;7.22;5.43;;;28.60;67.60;;;;;;5029519;28;20110;-54
2023/08/30 09:45:47;;;;;;;;;;;28.60;67.60;;;;;;5030435;28;20018;-54
2023/08/30 09:48:14;;;;;;;7.22;5.63;;;28.50;68.90;;;;;;5028761;28;19924;-53
2023/08/30 09:50:43;;;;;;;6.00;4.97;;;28.40;68.20;;;;;;5029468;28;20045;-54
2023/08/30 09:53:09;;;;;;;9.55;5.97;;;28.40;67.90;;;;;;5029600;28;20026;-54
2023/08/30 09:55:35;;;;;;;8.98;5.47;;;28.40;68.20;;;;;;5023534;28;20026;-54
2023/08/30 09:58:04;;;;;;;9.32;6.10;;;28.30;68.30;;;;;;5025976;28;20018;-54
2023/08/30 10:00:34;;;;;;;9.02;5.85;;;28.30;68.80;;;;;;5028918;28;20083;-53
2023/08/30 10:03:00;;;;;;;10.90;6.95;;;28.20;69.50;;;;;;5022474;28;20030;-54
2023/08/30 10:05:26;;;;;;;8.52;6.28;;;28.20;69.60;;;;;;5026185;28;20026;-53
2023/08/30 10:07:56;;;;;;;10.25;7.03;;;28.10;69.10;;;;;;5027268;28;20025;-53
2023/08/30 10:10:23;;;;;;;8.10;6.60;;;28.10;69.30;;;;;;5028085;28;20033;-54
2023/08/30 10:12:49;;;;;;;7.70;6.90;;;28.10;70.20;;;;;;5028131;28;20032;-54
2023/08/30 10:15:15;;;;;;;7.90;6.90;;;28.00;70.80;;;;;;5026558;28;20028;-53
2023/08/30 10:17:46;;;;;;;10.88;6.70;;;28.00;70.70;;;;;;5029280;28;20104;-55
2023/08/30 10:20:14;;;;;;;11.65;7.20;;;28.00;70.10;;;;;;5028757;28;20032;-52
2023/08/30 10:22:41;;;;;;;8.13;7.20;;;28.00;70.40;;;;;;5028751;28;20038;-54
2023/08/30 10:25:12;;;;;;;8.88;6.70;;;28.00;70.30;;;;;;5027575;28;20034;-55
2023/08/30 10:27:39;;;;;;;;;;;27.90;70.70;;;;;;5031883;28;20053;-53
2023/08/30 10:30:08;;;;;;;13.13;7.45;;;27.90;71.00;;;;;;5031862;28;19910;-52
2023/08/30 10:32:42;;;;;;;8.25;6.95;;;27.80;71.10;;;;;;5028196;28;20334;-53
2023/08/30 10:35:12;;;;;;;10.07;7.80;;;27.80;71.30;;;;;;5026445;28;20010;-55
2023/08/30 10:37:38;;;;;;;10.68;6.82;;;27.80;71.70;;;;;;5025944;28;20032;-55
2023/08/30 10:40:05;;;;;;;8.88;7.53;;;27.80;71.60;;;;;;5027295;28;20031;-54
2023/08/30 10:42:32;;;;;;;9.00;7.45;;;27.80;71.90;;;;;;5029138;28;20045;-52
2023/08/30 10:45:05;;;;;;;9.32;7.20;;;27.80;71.50;;;;;;5029766;28;20022;-54
2023/08/30 10:47:35;;;;;;;10.25;7.03;;;27.80;71.30;;;;;;5026983;28;20029;-54
2023/08/30 10:50:06;;;;;;;10.80;6.82;;;27.80;71.90;;;;;;5029621;28;20025;-53
2023/08/30 10:52:32;;;;;;;;;;;27.80;71.70;;;;;;5031847;28;20034;-53
2023/08/30 10:55:14;;;;;;;10.10;7.20;;;27.70;72.50;;;;;;5030783;28;20177;-54
2023/08/30 10:57:44;;;;;;;11.15;6.80;;;27.80;72.20;;;;;;5025520;28;20026;-52
2023/08/30 11:00:20;;;;;;;11.23;6.60;;;27.80;71.90;;;;;;5031231;28;20037;-52
2023/08/30 11:02:50;;;;;;;7.78;6.68;;;27.80;71.50;;;;;;5022163;28;20049;-53
2023/08/30 11:05:23;;;;;;;9.07;7.20;;;27.80;71.90;;;;;;5027752;28;20167;-54
2023/08/30 11:07:50;;;;;;;22.77;6.93;;;27.80;71.50;;;;;;5032502;28;20078;-55
2023/08/30 11:10:16;;;;;;;9.40;6.40;;;27.80;70.10;;;;;;5025370;28;20032;-54
2023/08/30 11:12:46;;;;;;;8.98;6.13;;;27.80;70.30;;;;;;5025436;28;20030;-53
2023/08/30 11:15:15;;;;;;;8.52;6.20;;;27.80;70.60;;;;;;5028538;28;20034;-52
2023/08/30 11:17:45;;;;;;;9.00;6.40;;;27.90;70.20;;;;;;5031393;28;20082;-54
2023/08/30 11:20:12;;;;;;;10.52;6.93;;;27.90;70.40;;;;;;5026147;28;20041;-55
2023/08/30 11:22:43;;;;;;;10.25;6.40;;;27.90;70.50;;;;;;5028662;28;20022;-54
2023/08/30 11:25:10;;;;;;;8.90;6.57;;;27.90;70.70;;;;;;5028501;28;20509;-54
2023/08/30 11:27:40;;;;;;;9.20;6.47;;;27.90;70.40;;;;;;5025585;28;20165;-55
2023/08/30 11:30:08;;;;;;;9.45;6.53;;;27.90;70.00;;;;;;5023571;28;20041;-54
2023/08/30 11:32:34;;;;;;;8.48;6.60;;;27.90;70.10;;;;;;5023077;28;20038;-55
2023/08/30 11:35:00;;;;;;;7.72;6.00;;;27.90;70.00;;;;;;5018740;28;20032;-54
2023/08/30 11:37:27;;;;;;;10.85;6.22;;;27.90;70.10;;;;;;5035409;28;20037;-55
2023/08/30 11:39:54;;;;;;;7.82;7.03;;;27.90;70.00;;;;;;5021267;28;20045;-56
2023/08/30 11:42:21;;;;;;;9.55;6.80;;;27.90;70.00;;;;;;5022342;28;20063;-55
2023/08/30 11:44:47;;;;;;;7.95;6.63;;;27.90;70.20;;;;;;5018234;28;20529;-53
2023/08/30 11:47:24;;;;;;;12.57;7.10;;;27.90;70.40;;;;;;5018568;28;20059;-54
2023/08/30 11:49:57;;;;;;;15.45;6.53;;;27.80;69.80;;;;;;5021367;28;20030;-54
2023/08/30 11:52:23;;;;;;;7.88;5.78;;;27.80;69.40;;;;;;5022522;28;20037;-53
2023/08/30 11:54:50;;;;;;;10.65;6.15;;;27.80;68.90;;;;;;5028229;28;20038;-53
2023/08/30 11:57:16;;;;;;;11.90;6.43;;;27.80;68.90;;;;;;5025663;28;20060;-51
2023/08/30 11:59:42;;;;;;;9.63;7.07;;;27.80;68.80;;;;;;5021594;28;20018;-54
2023/08/30 12:02:08;;;;;;;9.80;6.88;;;27.80;69.30;;;;;;5024769;28;20029;-56
2023/08/30 12:04:45;;;;;;;17.25;6.80;;;27.80;68.50;;;;;;5027327;28;20033;-54
2023/08/30 12:07:24;;;;;;;13.18;6.60;;;27.80;68.00;;;;;;5024521;28;20026;-54
2023/08/30 12:09:50;;;;;;;9.45;6.70;;;27.80;67.90;;;;;;5023329;28;20034;-55
2023/08/30 12:12:16;;;;;;;9.48;6.28;;;27.80;68.00;;;;;;5028963;28;20094;-55
2023/08/30 12:14:43;;;;;;;8.18;6.18;;;27.80;68.00;;;;;;5029625;28;20033;-54
2023/08/30 12:17:12;;;;;;;8.13;6.95;;;27.80;68.80;;;;;;5024089;28;20037;-56
2023/08/30 12:19:40;;;;;;;13.93;6.95;;;27.80;69.00;;;;;;5020109;28;20060;-55
2023/08/30 12:22:07;;;;;;;12.63;7.25;;;27.80;69.10;;;;;;5024404;28;20036;-53
2023/08/30 12:24:43;;;;;;;9.88;6.40;;;27.80;68.20;;;;;;5022609;28;20022;-55
2023/08/30 12:27:09;;;;;;;10.13;6.72;;;27.80;68.50;;;;;;5026132;28;20057;-53
2023/08/30 12:29:34;;;;;;;7.78;6.10;;;27.80;68.40;;;;;;5026637;28;20030;-51
2023/08/30 12:32:00;;;;;;;8.18;6.47;;;27.70;68.30;;;;;;5022547;28;20037;-53